Time;durP1;ratioP1;P1;durP2;ratioP2;P2;SDS_P1;SDS_P2;PMS_P1;PMS_P2;Temp;Humidity;BMP_temperature;BMP_pressure;BME280_temperature;BME280_humidity;BME280_pressure;Samples;Min_cycle;Max_cycle;Signal;HPM_P1;HPM_P2
2023/09/14 00:00:45;;;;;;;9.70;3.00;;;12.60;99.90;;;;;;4987976;28;20033;-59
2023/09/14 00:03:12;;;;;;;4.88;2.83;;;12.60;99.90;;;;;;5002697;28;20599;-60
2023/09/14 00:05:42;;;;;;;6.40;3.40;;;12.60;99.90;;;;;;5003842;28;20176;-60
2023/09/14 00:08:09;;;;;;;9.63;3.15;;;12.60;99.90;;;;;;4988851;28;20057;-59
2023/09/14 00:10:35;;;;;;;5.45;2.90;;;12.60;99.90;;;;;;4986804;28;20068;-59
2023/09/14 00:13:01;;;;;;;4.63;3.13;;;12.60;99.90;;;;;;5003513;28;20302;-59
2023/09/14 00:15:27;;;;;;;6.97;3.40;;;12.60;99.90;;;;;;4985711;28;20037;-60
2023/09/14 00:17:53;;;;;;;9.00;3.15;;;12.70;99.90;;;;;;5000824;28;20056;-59
2023/09/14 00:20:20;;;;;;;6.75;3.03;;;12.70;99.90;;;;;;4987397;28;20049;-59
2023/09/14 00:22:48;;;;;;;6.43;3.35;;;12.70;99.90;;;;;;4987562;28;20827;-59
2023/09/14 00:25:14;;;;;;;8.52;2.90;;;12.70;99.90;;;;;;4991481;28;20044;-59
2023/09/14 00:27:40;;;;;;;7.05;2.83;;;12.70;99.90;;;;;;5003580;28;20544;-58
2023/09/14 00:30:06;;;;;;;12.82;3.45;;;12.80;99.90;;;;;;4988622;28;20041;-59
2023/09/14 00:32:38;;;;;;;6.38;3.00;;;12.80;99.90;;;;;;4972015;28;20049;-59
2023/09/14 00:35:05;;;;;;;6.93;3.00;;;12.80;99.90;;;;;;4990368;28;20041;-59
2023/09/14 00:37:31;;;;;;;4.10;2.83;;;12.80;99.90;;;;;;4985902;28;21044;-60
2023/09/14 00:39:57;;;;;;;13.38;2.88;;;12.80;99.90;;;;;;5003915;28;20034;-60
2023/09/14 00:42:22;;;;;;;4.55;2.97;;;12.80;99.90;;;;;;4988102;28;20464;-59
2023/09/14 00:44:48;;;;;;;6.05;2.60;;;12.80;99.90;;;;;;5002265;28;20125;-59
2023/09/14 00:47:14;;;;;;;4.30;2.47;;;12.80;99.90;;;;;;5004087;28;20060;-59
2023/09/14 00:49:41;;;;;;;2.92;2.40;;;12.80;99.90;;;;;;5001994;28;20049;-60
2023/09/14 00:52:10;;;;;;;6.28;2.60;;;12.80;99.90;;;;;;5002128;28;20108;-60
2023/09/14 00:54:37;;;;;;;7.57;2.65;;;12.80;99.90;;;;;;5002607;28;20048;-59
2023/09/14 00:57:04;;;;;;;5.80;2.53;;;12.80;99.90;;;;;;4990902;28;20050;-59
2023/09/14 00:59:31;;;;;;;6.93;2.50;;;12.80;99.90;;;;;;4988216;28;20190;-59
2023/09/14 01:01:57;;;;;;;4.88;2.50;;;12.80;99.90;;;;;;5004160;28;20362;-58
2023/09/14 01:04:23;;;;;;;8.63;2.50;;;12.80;99.90;;;;;;4988980;28;20045;-59
2023/09/14 01:06:49;;;;;;;11.93;2.80;;;12.80;99.90;;;;;;5003952;28;20136;-60
2023/09/14 01:09:15;;;;;;;3.85;2.25;;;12.80;99.90;;;;;;4989404;28;20926;-59
2023/09/14 01:11:41;;;;;;;5.28;2.60;;;12.80;99.90;;;;;;4974377;28;20041;-59
2023/09/14 01:14:26;;;;;;;6.32;2.63;;;12.80;99.90;;;;;;5002804;28;20046;-59
2023/09/14 01:17:21;;;;;;;6.28;2.72;;;12.80;99.90;;;;;;4999140;28;20115;-60
2023/09/14 01:20:03;;;;;;;9.80;3.10;;;12.80;99.90;;;;;;4978672;28;20576;-59
2023/09/14 01:22:35;;;;;;;6.68;2.53;;;12.80;99.90;;;;;;4982996;28;20140;-59
2023/09/14 01:25:23;;;;;;;6.80;2.50;;;12.80;99.90;;;;;;4982974;28;20116;-60
2023/09/14 01:27:49;;;;;;;6.10;2.65;;;12.80;99.90;;;;;;4984011;28;20050;-59
2023/09/14 01:30:15;;;;;;;4.88;2.50;;;12.80;99.90;;;;;;4967393;28;20089;-58
2023/09/14 01:32:41;;;;;;;5.53;2.63;;;12.80;99.90;;;;;;4981867;28;20509;-59
2023/09/14 01:35:08;;;;;;;5.57;2.85;;;12.80;99.90;;;;;;4968592;28;20435;-58
2023/09/14 01:37:34;;;;;;;6.65;2.63;;;12.80;99.90;;;;;;4984468;28;20448;-59
2023/09/14 01:40:01;;;;;;;6.43;3.10;;;12.80;99.90;;;;;;4972409;28;20078;-58
2023/09/14 01:42:27;;;;;;;4.35;2.58;;;12.80;99.90;;;;;;4968447;28;20476;-60
2023/09/14 01:44:53;;;;;;;8.45;2.80;;;12.80;99.90;;;;;;4979555;28;20046;-59
2023/09/14 01:47:19;;;;;;;5.72;2.80;;;12.80;99.90;;;;;;4975729;28;20517;-59
2023/09/14 01:49:45;;;;;;;6.45;3.20;;;12.80;99.90;;;;;;4967921;28;20034;-58
2023/09/14 01:52:11;;;;;;;6.72;3.30;;;12.80;99.90;;;;;;4982516;28;20053;-59
2023/09/14 01:54:36;;;;;;;5.97;2.85;;;12.80;99.90;;;;;;4983976;28;20064;-60
2023/09/14 01:57:02;;;;;;;3.30;2.53;;;12.80;99.90;;;;;;4981912;28;20344;-59
2023/09/14 01:59:28;;;;;;;4.95;3.03;;;12.80;99.90;;;;;;4982394;28;20069;-60
2023/09/14 02:01:54;;;;;;;8.07;2.80;;;12.80;99.90;;;;;;4984165;28;20076;-60
2023/09/14 02:04:19;;;;;;;8.73;3.10;;;12.80;99.90;;;;;;4987568;28;20046;-59
2023/09/14 02:06:45;;;;;;;6.28;3.03;;;12.80;99.90;;;;;;4976314;28;20037;-60
2023/09/14 02:09:11;;;;;;;6.47;3.10;;;12.80;99.90;;;;;;4968430;28;20107;-59
2023/09/14 02:11:36;;;;;;;8.23;3.00;;;12.80;99.90;;;;;;4972059;28;20946;-59
2023/09/14 02:14:02;;;;;;;6.47;3.20;;;12.80;99.90;;;;;;4976424;28;20101;-58
2023/09/14 02:16:28;;;;;;;5.47;3.08;;;12.80;99.90;;;;;;4986293;28;20042;-59
2023/09/14 02:18:54;;;;;;;5.45;2.97;;;12.80;99.90;;;;;;4991232;28;20879;-58
2023/09/14 02:21:20;;;;;;;10.30;2.90;;;12.80;99.90;;;;;;5006364;28;20081;-60
2023/09/14 02:23:46;;;;;;;4.28;2.70;;;12.80;99.90;;;;;;5007249;28;20515;-58
2023/09/14 02:26:11;;;;;;;6.68;3.05;;;12.80;99.90;;;;;;5004555;28;20041;-59
2023/09/14 02:28:37;;;;;;;8.30;3.00;;;12.80;99.90;;;;;;5006408;28;20056;-60
2023/09/14 02:31:07;;;;;;;7.13;3.13;;;12.80;99.90;;;;;;5000313;28;20041;-58
2023/09/14 02:33:33;;;;;;;8.07;3.05;;;12.80;99.90;;;;;;4991422;28;20072;-60
2023/09/14 02:35:59;;;;;;;4.45;2.72;;;12.80;99.90;;;;;;5003146;28;20033;-59
2023/09/14 02:38:25;;;;;;;6.10;2.83;;;12.80;99.90;;;;;;5006617;28;20124;-58
2023/09/14 02:40:51;;;;;;;7.07;3.00;;;12.80;99.90;;;;;;5004067;28;20624;-59
2023/09/14 02:43:17;;;;;;;10.95;3.05;;;12.80;99.90;;;;;;5007482;28;20037;-59
2023/09/14 02:45:42;;;;;;;7.38;3.50;;;12.80;99.90;;;;;;5005900;28;20041;-59
2023/09/14 02:48:08;;;;;;;5.28;2.92;;;12.80;99.90;;;;;;5004640;28;20140;-58
2023/09/14 02:50:34;;;;;;;8.65;3.42;;;12.80;99.90;;;;;;5005346;28;20633;-59
2023/09/14 02:52:59;;;;;;;7.05;3.22;;;12.80;99.90;;;;;;5004354;28;20444;-58
2023/09/14 02:55:25;;;;;;;7.72;3.60;;;12.80;99.90;;;;;;5007226;28;20064;-60
2023/09/14 02:57:51;;;;;;;8.95;3.42;;;12.80;99.90;;;;;;5006420;28;20162;-60
2023/09/14 03:00:17;;;;;;;6.50;3.08;;;12.80;99.90;;;;;;5002612;28;20041;-58
2023/09/14 03:02:44;;;;;;;5.47;3.05;;;12.80;99.90;;;;;;5003931;28;20045;-58
2023/09/14 03:05:10;;;;;;;3.78;2.60;;;12.80;99.90;;;;;;5006759;28;20048;-59
2023/09/14 03:07:36;;;;;;;6.25;3.00;;;12.80;99.90;;;;;;5005499;28;20042;-59
2023/09/14 03:10:03;;;;;;;8.68;3.00;;;12.90;99.90;;;;;;5003653;28;20052;-59
2023/09/14 03:12:29;;;;;;;6.03;3.22;;;12.80;99.90;;;;;;5004402;28;20168;-59
2023/09/14 03:14:54;;;;;;;11.18;4.07;;;12.80;99.90;;;;;;5003073;28;27268;-59
2023/09/14 03:17:20;;;;;;;10.18;3.10;;;12.80;99.90;;;;;;4975571;28;20197;-60
2023/09/14 03:19:46;;;;;;;6.10;2.70;;;12.80;99.90;;;;;;5005730;28;20061;-59
2023/09/14 03:22:12;;;;;;;6.68;2.97;;;12.80;99.90;;;;;;5006675;28;20505;-60
2023/09/14 03:24:37;;;;;;;7.00;2.72;;;12.80;99.90;;;;;;5006345;28;20409;-60
2023/09/14 03:27:03;;;;;;;5.70;3.17;;;12.80;99.90;;;;;;5005919;28;20045;-60
2023/09/14 03:29:29;;;;;;;6.70;3.35;;;12.80;99.90;;;;;;5004582;28;21003;-60
2023/09/14 03:31:55;;;;;;;6.85;2.83;;;12.70;99.90;;;;;;4992577;28;20150;-59
2023/09/14 03:34:21;;;;;;;9.00;3.33;;;12.70;99.90;;;;;;5008070;28;20037;-59
2023/09/14 03:36:46;;;;;;;7.50;2.67;;;12.70;99.90;;;;;;4991461;28;20405;-59
2023/09/14 03:39:12;;;;;;;6.80;3.30;;;12.80;99.90;;;;;;5004923;28;20081;-60
2023/09/14 03:41:38;;;;;;;5.45;2.80;;;12.60;99.90;;;;;;5020164;28;20041;-59
2023/09/14 03:44:04;;;;;;;6.47;2.85;;;12.60;99.90;;;;;;5009599;28;20038;-60
2023/09/14 03:46:30;;;;;;;7.03;2.97;;;12.50;99.90;;;;;;5005680;28;20045;-60
2023/09/14 03:48:56;;;;;;;6.00;2.75;;;12.50;99.90;;;;;;5006315;28;20512;-59
2023/09/14 03:51:21;;;;;;;7.15;2.90;;;12.50;99.90;;;;;;5003861;28;21733;-59
2023/09/14 03:53:47;;;;;;;5.40;2.70;;;12.40;99.90;;;;;;5004335;28;20053;-60
2023/09/14 03:56:14;;;;;;;5.15;2.60;;;12.40;99.90;;;;;;5003418;28;20422;-60
2023/09/14 03:58:42;;;;;;;4.80;2.70;;;12.40;99.90;;;;;;5005729;28;20544;-59
2023/09/14 04:01:08;;;;;;;8.65;2.53;;;12.30;99.90;;;;;;5005004;28;20053;-60
2023/09/14 04:03:34;;;;;;;5.57;2.50;;;12.30;99.90;;;;;;5003501;28;20165;-59
2023/09/14 04:05:59;;;;;;;7.28;2.35;;;12.30;99.90;;;;;;5006524;28;20484;-57
2023/09/14 04:08:26;;;;;;;6.00;2.47;;;12.20;99.90;;;;;;5016609;28;20071;-59
2023/09/14 04:10:52;;;;;;;10.15;2.70;;;12.20;99.90;;;;;;5007952;28;20172;-58
2023/09/14 04:13:35;;;;;;;6.28;2.80;;;12.10;99.90;;;;;;5019110;28;20045;-60
2023/09/14 04:16:05;;;;;;;7.90;2.80;;;12.10;99.90;;;;;;5003640;28;20061;-59
2023/09/14 04:18:35;;;;;;;4.78;2.30;;;12.10;99.90;;;;;;4991948;28;20049;-60
2023/09/14 04:21:02;;;;;;;5.15;2.50;;;12.00;99.90;;;;;;5003709;28;20110;-58
2023/09/14 04:23:28;;;;;;;4.78;2.42;;;11.90;99.90;;;;;;4991913;28;20052;-58
2023/09/14 04:25:54;;;;;;;9.77;2.97;;;11.90;99.90;;;;;;5001630;28;20069;-60
2023/09/14 04:28:23;;;;;;;6.20;2.50;;;11.90;99.90;;;;;;5002149;28;20088;-60
2023/09/14 04:30:52;;;;;;;5.35;2.50;;;11.90;99.90;;;;;;5003656;28;20045;-59
2023/09/14 04:33:18;;;;;;;5.82;2.50;;;11.80;99.90;;;;;;5004292;28;20041;-60
2023/09/14 04:35:45;;;;;;;6.72;2.70;;;11.80;99.90;;;;;;5004857;28;20555;-59
2023/09/14 04:38:11;;;;;;;4.60;2.42;;;11.70;99.90;;;;;;5001323;28;20049;-59
2023/09/14 04:40:43;;;;;;;2.83;2.15;;;11.70;99.90;;;;;;5003129;28;20038;-59
2023/09/14 04:43:09;;;;;;;4.90;2.63;;;11.70;99.90;;;;;;5003130;28;20048;-59
2023/09/14 04:45:35;;;;;;;4.60;2.35;;;11.60;99.90;;;;;;5001354;28;20140;-58
2023/09/14 04:48:01;;;;;;;10.27;3.13;;;11.50;99.90;;;;;;5000681;28;20044;-59
2023/09/14 04:50:27;;;;;;;5.25;2.90;;;11.50;99.90;;;;;;4996428;28;20033;-59
2023/09/14 04:52:52;;;;;;;6.00;2.47;;;11.40;99.90;;;;;;5005570;28;20048;-58
2023/09/14 04:55:18;;;;;;;4.40;2.50;;;11.30;99.90;;;;;;5001283;28;20038;-59
2023/09/14 04:57:44;;;;;;;5.13;2.80;;;11.40;99.90;;;;;;5002391;28;20084;-59
2023/09/14 05:00:11;;;;;;;9.38;2.53;;;11.30;99.90;;;;;;5003307;28;20371;-60
2023/09/14 05:02:38;;;;;;;5.35;2.65;;;11.20;99.90;;;;;;5003853;28;20427;-57
2023/09/14 05:05:06;;;;;;;6.65;2.83;;;11.20;99.90;;;;;;5001673;28;20041;-59
2023/09/14 05:07:32;;;;;;;7.43;2.88;;;11.20;99.90;;;;;;5003891;28;20045;-59
2023/09/14 05:09:58;;;;;;;7.28;3.50;;;11.20;99.90;;;;;;4995506;28;20374;-59
2023/09/14 05:12:24;;;;;;;6.18;3.38;;;11.20;99.90;;;;;;5000918;28;20088;-59
2023/09/14 05:14:49;;;;;;;7.55;4.25;;;11.10;99.90;;;;;;5002562;28;20049;-57
2023/09/14 05:17:15;;;;;;;10.95;3.88;;;11.10;99.90;;;;;;4998569;28;20082;-59
2023/09/14 05:19:42;;;;;;;8.50;3.95;;;11.10;99.90;;;;;;5000348;28;20053;-57
2023/09/14 05:22:09;;;;;;;9.52;4.10;;;11.10;99.90;;;;;;5002802;28;20052;-59
2023/09/14 05:24:35;;;;;;;7.88;3.40;;;11.10;99.90;;;;;;4985852;28;21447;-59
2023/09/14 05:27:01;;;;;;;7.55;3.45;;;11.10;99.90;;;;;;5000813;28;20041;-59
2023/09/14 05:29:26;;;;;;;11.13;3.63;;;11.10;99.90;;;;;;4987736;28;20115;-58
2023/09/14 05:31:52;;;;;;;9.98;3.67;;;11.10;99.90;;;;;;5003295;28;20046;-59
2023/09/14 05:34:18;;;;;;;5.80;3.20;;;11.10;99.90;;;;;;5003503;28;20119;-58
2023/09/14 05:36:44;;;;;;;5.43;3.35;;;11.10;99.90;;;;;;5005914;28;20155;-59
2023/09/14 05:39:09;;;;;;;8.70;3.67;;;11.00;99.90;;;;;;5004899;28;20470;-59
2023/09/14 05:41:35;;;;;;;10.60;3.10;;;11.00;99.90;;;;;;5007485;28;20041;-59
2023/09/14 05:44:05;;;;;;;6.40;3.50;;;11.00;99.90;;;;;;5007804;28;20647;-59
2023/09/14 05:46:31;;;;;;;9.85;3.95;;;11.00;99.90;;;;;;5001846;28;20050;-59
2023/09/14 05:48:56;;;;;;;7.60;3.10;;;11.00;99.90;;;;;;5005572;28;20088;-59
2023/09/14 05:51:23;;;;;;;5.13;2.88;;;10.90;99.90;;;;;;5004449;28;20116;-58
2023/09/14 05:53:49;;;;;;;7.95;3.60;;;10.90;99.90;;;;;;5007355;28;20112;-59
2023/09/14 05:56:16;;;;;;;7.25;3.30;;;10.90;99.90;;;;;;5004713;28;20286;-59
2023/09/14 05:58:42;;;;;;;7.72;3.20;;;11.00;99.90;;;;;;5006823;28;20037;-59
2023/09/14 06:01:08;;;;;;;8.43;4.20;;;11.00;99.90;;;;;;5007883;28;20076;-59
2023/09/14 06:03:33;;;;;;;8.85;3.22;;;11.00;99.90;;;;;;5005585;28;20103;-60
2023/09/14 06:05:59;;;;;;;5.10;2.80;;;11.00;99.90;;;;;;5007416;28;20823;-60
2023/09/14 06:08:25;;;;;;;5.03;3.17;;;11.10;99.90;;;;;;5005129;28;20045;-59
2023/09/14 06:10:50;;;;;;;5.82;2.65;;;11.00;99.90;;;;;;5006370;28;20041;-57
2023/09/14 06:13:18;;;;;;;7.80;3.13;;;11.00;99.90;;;;;;4995258;28;20167;-59
2023/09/14 06:15:43;;;;;;;8.20;3.08;;;11.10;99.90;;;;;;5005170;28;20389;-59
2023/09/14 06:18:09;;;;;;;10.15;3.50;;;11.10;99.90;;;;;;5006988;28;20409;-60
2023/09/14 06:20:35;;;;;;;7.55;3.00;;;11.10;99.90;;;;;;5006323;28;20524;-59
2023/09/14 06:23:01;;;;;;;9.75;3.22;;;11.10;99.90;;;;;;4983853;28;20697;-59
2023/09/14 06:25:27;;;;;;;6.00;3.40;;;11.20;99.90;;;;;;5004568;28;20046;-59
2023/09/14 06:27:52;;;;;;;6.65;3.10;;;11.20;99.90;;;;;;5009039;28;20503;-60
2023/09/14 06:30:18;;;;;;;5.90;3.10;;;11.30;99.90;;;;;;5010250;28;20041;-58
2023/09/14 06:32:44;;;;;;;11.40;3.22;;;11.30;99.90;;;;;;5001360;28;20038;-58
2023/09/14 06:35:10;;;;;;;9.68;3.80;;;11.30;99.90;;;;;;4992876;28;20529;-59
2023/09/14 06:37:36;;;;;;;7.65;3.40;;;11.40;99.90;;;;;;5003164;28;20045;-58
2023/09/14 06:40:06;;;;;;;7.25;3.47;;;11.40;99.90;;;;;;5002124;28;20549;-59
2023/09/14 06:42:32;;;;;;;10.98;3.28;;;11.50;99.90;;;;;;5004255;28;20472;-59
2023/09/14 06:44:58;;;;;;;6.78;3.08;;;11.50;99.90;;;;;;5002970;28;20595;-59
2023/09/14 06:47:24;;;;;;;9.02;3.17;;;11.60;99.90;;;;;;5003334;28;20052;-59
2023/09/14 06:49:49;;;;;;;9.10;3.35;;;11.60;99.90;;;;;;5006333;28;20046;-59
2023/09/14 06:52:15;;;;;;;8.45;3.00;;;11.70;99.90;;;;;;5006941;28;20057;-59
2023/09/14 06:54:41;;;;;;;9.68;3.60;;;11.70;99.90;;;;;;5003332;28;20053;-58
2023/09/14 06:57:06;;;;;;;8.85;2.70;;;11.80;99.90;;;;;;5009940;28;20049;-59
2023/09/14 06:59:32;;;;;;;7.22;2.90;;;11.80;99.90;;;;;;5008623;28;20038;-59
2023/09/14 07:01:59;;;;;;;9.80;3.17;;;11.90;99.90;;;;;;5002942;28;20045;-59
2023/09/14 07:04:25;;;;;;;10.00;2.85;;;11.90;99.90;;;;;;5008647;28;20046;-60
2023/09/14 07:06:50;;;;;;;11.68;3.03;;;12.00;99.90;;;;;;5009215;28;20408;-59
2023/09/14 07:09:16;;;;;;;5.65;2.65;;;12.00;99.90;;;;;;5006851;28;20913;-59
2023/09/14 07:11:42;;;;;;;12.13;2.67;;;12.10;99.90;;;;;;5008669;28;20080;-59
2023/09/14 07:14:08;;;;;;;15.02;2.53;;;12.20;99.90;;;;;;5009559;28;20050;-57
2023/09/14 07:16:33;;;;;;;5.22;2.45;;;12.20;99.90;;;;;;5006656;28;20388;-59
2023/09/14 07:19:00;;;;;;;10.13;2.60;;;12.30;99.90;;;;;;4999776;28;20604;-58
2023/09/14 07:21:27;;;;;;;7.32;2.42;;;12.40;99.90;;;;;;4995686;28;20134;-59
2023/09/14 07:23:52;;;;;;;10.43;2.60;;;12.50;99.90;;;;;;5008047;28;20049;-59
2023/09/14 07:26:18;;;;;;;6.18;2.15;;;12.50;99.90;;;;;;5002721;28;21919;-59
2023/09/14 07:28:44;;;;;;;9.10;2.88;;;12.60;99.90;;;;;;5008462;28;20132;-60
2023/09/14 07:31:09;;;;;;;5.80;2.00;;;12.70;99.90;;;;;;5005880;28;20045;-58
2023/09/14 07:33:35;;;;;;;9.40;2.25;;;12.90;99.90;;;;;;5009283;28;20471;-58
2023/09/14 07:36:01;;;;;;;5.75;2.00;;;13.00;99.90;;;;;;5012886;28;20358;-59
2023/09/14 07:38:27;;;;;;;9.75;2.13;;;13.10;99.90;;;;;;5012075;28;20049;-59
2023/09/14 07:40:52;;;;;;;8.32;1.90;;;13.20;99.90;;;;;;5012638;28;20061;-58
2023/09/14 07:43:18;;;;;;;6.78;2.10;;;13.40;99.90;;;;;;5012989;28;20041;-59
2023/09/14 07:45:44;;;;;;;4.90;1.73;;;13.50;99.90;;;;;;5007170;28;20123;-60
2023/09/14 07:48:10;;;;;;;6.40;1.60;;;13.70;99.90;;;;;;5027632;28;20099;-59
2023/09/14 07:50:39;;;;;;;6.95;1.77;;;13.80;99.90;;;;;;5009755;28;20037;-58
2023/09/14 07:53:06;;;;;;;7.88;1.92;;;14.00;99.90;;;;;;5008768;28;20698;-59
2023/09/14 07:55:32;;;;;;;7.97;2.13;;;14.10;99.90;;;;;;5015220;28;20505;-59
2023/09/14 07:57:58;;;;;;;8.93;1.40;;;14.30;99.90;;;;;;5010151;28;20045;-59
2023/09/14 08:00:25;;;;;;;3.47;1.52;;;14.30;99.90;;;;;;5010865;28;20033;-59
2023/09/14 08:02:51;;;;;;;3.58;1.70;;;14.40;99.90;;;;;;5017404;28;20488;-59
2023/09/14 08:05:17;;;;;;;9.15;1.75;;;14.50;99.90;;;;;;5012245;28;20041;-58
2023/09/14 08:07:43;;;;;;;5.45;1.90;;;14.50;99.90;;;;;;5030178;28;20042;-59
2023/09/14 08:10:09;;;;;;;8.40;1.40;;;14.60;99.90;;;;;;5012620;28;20092;-59
2023/09/14 08:12:37;;;;;;;4.47;1.38;;;14.70;99.90;;;;;;5008397;28;20391;-59
2023/09/14 08:15:07;;;;;;;6.22;1.67;;;14.80;99.90;;;;;;5012382;28;20073;-59
2023/09/14 08:17:33;;;;;;;7.45;1.90;;;15.00;99.90;;;;;;5012449;28;20053;-59
2023/09/14 08:19:59;;;;;;;5.03;1.58;;;15.20;99.90;;;;;;5010912;28;20049;-59
2023/09/14 08:22:25;;;;;;;4.80;1.48;;;15.30;99.90;;;;;;5012515;28;20041;-59
2023/09/14 08:24:51;;;;;;;4.10;1.77;;;15.40;99.90;;;;;;5012076;28;20063;-60
2023/09/14 08:27:17;;;;;;;7.45;1.75;;;15.60;99.90;;;;;;5013213;28;20038;-59
2023/09/14 08:29:43;;;;;;;5.43;1.48;;;15.80;99.90;;;;;;5013061;28;20052;-60
2023/09/14 08:32:12;;;;;;;4.75;1.48;;;16.00;99.90;;;;;;5012553;28;20029;-59
2023/09/14 08:34:38;;;;;;;6.35;1.60;;;16.10;99.90;;;;;;5014755;28;20072;-60
2023/09/14 08:37:07;;;;;;;4.45;1.58;;;16.10;99.90;;;;;;5006802;28;20475;-58
2023/09/14 08:39:33;;;;;;;7.18;1.30;;;16.20;99.90;;;;;;5016953;28;20053;-61
2023/09/14 08:41:59;;;;;;;5.70;1.75;;;16.20;99.90;;;;;;5008501;28;20053;-59
2023/09/14 08:44:26;;;;;;;7.50;1.90;;;16.30;99.90;;;;;;5007951;28;20034;-59
2023/09/14 08:46:53;;;;;;;6.07;1.55;;;16.40;99.90;;;;;;5010328;28;20434;-60
2023/09/14 08:49:21;;;;;;;8.35;1.80;;;16.40;99.90;;;;;;5012272;28;20091;-59
2023/09/14 08:51:50;;;;;;;4.57;1.73;;;16.50;99.90;;;;;;5005398;28;20041;-58
2023/09/14 08:54:17;;;;;;;6.38;2.00;;;16.60;99.90;;;;;;5010321;28;20046;-60
2023/09/14 08:56:43;;;;;;;8.43;1.58;;;16.80;99.90;;;;;;5012638;28;20057;-59
2023/09/14 08:59:11;;;;;;;5.30;1.45;;;16.90;99.90;;;;;;5011751;28;20034;-59
2023/09/14 09:01:37;;;;;;;4.10;1.52;;;17.10;99.90;;;;;;5000902;28;20079;-60
2023/09/14 09:04:03;;;;;;;4.55;1.70;;;17.30;99.90;;;;;;5012343;28;20049;-60
2023/09/14 09:06:30;;;;;;;11.20;1.63;;;17.40;99.90;;;;;;5010131;28;20370;-59
2023/09/14 09:08:59;;;;;;;7.72;1.55;;;17.60;99.80;;;;;;5006666;28;20060;-59
2023/09/14 09:11:24;;;;;;;4.45;1.52;;;17.70;99.40;;;;;;5002241;28;20144;-59
2023/09/14 09:13:50;;;;;;;7.25;1.40;;;17.80;98.90;;;;;;5001604;28;20132;-59
2023/09/14 09:16:16;;;;;;;5.05;1.65;;;18.00;98.90;;;;;;5007261;28;20566;-59
2023/09/14 09:19:05;;;;;;;5.97;1.88;;;18.10;98.50;;;;;;5007149;28;20590;-59
2023/09/14 09:21:33;;;;;;;5.95;1.70;;;18.20;98.50;;;;;;5017995;28;20079;-60
2023/09/14 09:24:01;;;;;;;8.80;2.00;;;18.40;98.00;;;;;;5004703;28;20148;-60
2023/09/14 09:26:33;;;;;;;11.02;1.90;;;18.50;97.80;;;;;;5006229;28;20045;-60
2023/09/14 09:28:59;;;;;;;6.10;1.63;;;18.70;97.60;;;;;;5004828;28;20084;-58
2023/09/14 09:31:42;;;;;;;4.85;1.50;;;18.80;97.10;;;;;;5008288;28;20045;-59
2023/09/14 09:34:09;;;;;;;;;;;18.90;96.70;;;;;;5006052;28;20106;-59
2023/09/14 09:36:36;;;;;;;6.15;1.60;;;19.00;97.90;;;;;;5011904;28;19917;-60
2023/09/14 09:39:04;;;;;;;7.43;1.77;;;19.10;96.40;;;;;;5009386;28;20489;-60
2023/09/14 09:41:34;;;;;;;5.78;1.40;;;19.20;95.90;;;;;;5020880;28;20037;-59
2023/09/14 09:44:07;;;;;;;7.35;1.73;;;19.30;95.10;;;;;;5012586;28;20551;-60
2023/09/14 09:46:36;;;;;;;7.15;1.60;;;19.50;95.30;;;;;;5011176;28;20045;-60
2023/09/14 09:49:23;;;;;;;8.38;1.55;;;19.60;95.30;;;;;;5013402;28;20049;-60
2023/09/14 09:51:50;;;;;;;4.28;1.60;;;19.80;94.90;;;;;;5009599;28;20046;-60
2023/09/14 09:54:19;;;;;;;5.07;1.40;;;19.90;94.80;;;;;;5009610;28;20239;-60
2023/09/14 09:56:45;;;;;;;6.00;1.88;;;19.90;94.40;;;;;;5012531;28;20115;-60
2023/09/14 09:59:14;;;;;;;5.03;1.50;;;20.00;94.20;;;;;;5012144;28;20475;-60
2023/09/14 10:01:43;;;;;;;5.30;1.58;;;20.10;93.60;;;;;;5010624;28;20037;-60
2023/09/14 10:04:13;;;;;;;7.80;1.73;;;20.10;93.20;;;;;;5011355;28;20034;-60
2023/09/14 10:06:40;;;;;;;6.28;1.70;;;20.00;93.10;;;;;;5014645;28;21252;-60
2023/09/14 10:09:11;;;;;;;5.25;1.55;;;20.00;92.70;;;;;;5009009;28;20077;-58
2023/09/14 10:11:38;;;;;;;3.50;1.38;;;20.10;92.60;;;;;;5010440;28;20034;-60
2023/09/14 10:14:05;;;;;;;10.07;1.80;;;20.20;92.60;;;;;;5010016;28;20120;-59
2023/09/14 10:16:41;;;;;;;7.85;2.30;;;20.20;92.00;;;;;;5010871;28;20384;-59
2023/09/14 10:19:08;;;;;;;5.47;1.70;;;20.20;92.00;;;;;;5007856;28;20049;-60
2023/09/14 10:21:35;;;;;;;4.43;1.60;;;20.40;92.20;;;;;;5010392;28;20090;-60
2023/09/14 10:24:05;;;;;;;5.00;1.50;;;20.60;92.20;;;;;;5013070;28;20523;-60
2023/09/14 10:26:36;;;;;;;7.30;2.08;;;20.70;91.90;;;;;;5014499;28;20045;-60
2023/09/14 10:29:08;;;;;;;4.68;1.63;;;20.60;91.70;;;;;;5010204;28;20108;-59
2023/09/14 10:31:42;;;;;;;5.60;1.90;;;20.50;91.20;;;;;;4995716;28;20061;-60
2023/09/14 10:34:10;;;;;;;3.17;1.55;;;20.50;90.80;;;;;;5010729;28;20132;-60
2023/09/14 10:36:40;;;;;;;4.53;1.63;;;20.50;91.10;;;;;;5010778;28;20095;-60
2023/09/14 10:39:08;;;;;;;7.72;2.08;;;20.70;91.30;;;;;;5009153;28;20392;-60
2023/09/14 10:41:34;;;;;;;6.20;1.83;;;20.90;90.70;;;;;;5009341;28;20255;-59
2023/09/14 10:44:00;;;;;;;7.78;1.85;;;21.10;91.00;;;;;;5011748;28;20428;-60
2023/09/14 10:46:35;;;;;;;11.18;2.00;;;21.10;90.70;;;;;;4998323;28;20042;-61
2023/09/14 10:49:02;;;;;;;9.18;1.95;;;21.00;90.70;;;;;;5009233;28;20042;-60
2023/09/14 10:51:28;;;;;;;3.90;1.88;;;20.80;90.50;;;;;;5010525;28;20080;-60
2023/09/14 10:53:54;;;;;;;4.82;1.38;;;20.60;90.50;;;;;;5014721;28;20041;-60
2023/09/14 10:56:31;;;;;;;5.85;1.95;;;20.60;90.70;;;;;;5014064;28;20037;-60
2023/09/14 10:58:58;;;;;;;12.18;2.10;;;20.50;90.90;;;;;;5026367;28;20096;-60
2023/09/14 11:01:28;;;;;;;3.78;1.70;;;20.50;90.40;;;;;;5007785;28;20069;-61
2023/09/14 11:04:22;;;;;;;8.38;2.00;;;20.30;89.80;;;;;;5008862;28;20044;-60
2023/09/14 11:06:49;;;;;;;4.82;1.92;;;20.20;89.80;;;;;;5008803;28;20501;-60
2023/09/14 11:09:16;;;;;;;6.00;2.15;;;20.10;90.10;;;;;;5011936;28;20050;-60
2023/09/14 11:11:44;;;;;;;4.60;1.60;;;20.00;90.30;;;;;;5010730;28;20100;-60
2023/09/14 11:14:13;;;;;;;6.88;1.85;;;20.20;90.70;;;;;;5013460;28;20049;-61
2023/09/14 11:16:50;;;;;;;6.68;2.33;;;20.50;90.80;;;;;;5028043;28;20038;-60
2023/09/14 11:19:37;;;;;;;10.98;1.90;;;21.00;89.20;;;;;;5010841;28;20057;-60
2023/09/14 11:22:04;;;;;;;5.22;1.65;;;21.30;89.00;;;;;;5010227;28;20048;-61
2023/09/14 11:24:34;;;;;;;4.82;1.67;;;21.60;86.80;;;;;;5003102;28;20046;-60
2023/09/14 11:27:00;;;;;;;5.38;2.17;;;22.00;86.20;;;;;;5006293;28;20077;-60
2023/09/14 11:29:27;;;;;;;6.20;2.10;;;22.30;85.60;;;;;;5011135;28;20446;-60
2023/09/14 11:32:00;;;;;;;6.20;2.15;;;22.50;83.30;;;;;;5007576;28;20037;-59
2023/09/14 11:34:29;;;;;;;7.22;1.90;;;22.70;83.50;;;;;;5013108;28;20091;-60
2023/09/14 11:37:01;;;;;;;4.88;1.75;;;22.80;82.20;;;;;;5010020;28;20107;-59
2023/09/14 11:39:28;;;;;;;5.80;2.20;;;23.00;81.50;;;;;;5010522;28;20073;-60
2023/09/14 11:42:01;;;;;;;5.05;2.00;;;23.20;80.80;;;;;;5011520;28;20042;-60
2023/09/14 11:44:31;;;;;;;6.80;2.17;;;23.40;81.00;;;;;;5028282;28;20034;-60
2023/09/14 11:47:02;;;;;;;7.68;2.00;;;23.50;78.70;;;;;;5012113;28;20030;-59
2023/09/14 11:49:30;;;;;;;5.82;2.00;;;23.50;77.30;;;;;;5016062;28;20389;-60
2023/09/14 11:51:56;;;;;;;8.65;2.33;;;23.60;77.60;;;;;;5010635;28;20042;-60
2023/09/14 11:54:28;;;;;;;6.50;2.00;;;23.60;77.10;;;;;;5009589;28;20331;-59
2023/09/14 11:57:07;;;;;;;6.03;2.33;;;23.60;76.90;;;;;;5008494;28;20559;-60
2023/09/14 11:59:33;;;;;;;6.60;2.20;;;23.60;75.50;;;;;;5012093;28;20045;-59
2023/09/14 12:02:01;;;;;;;5.60;1.98;;;23.70;75.40;;;;;;5008509;28;20056;-60
2023/09/14 12:04:29;;;;;;;5.60;2.20;;;23.80;75.90;;;;;;5011108;28;20041;-60
2023/09/14 12:06:55;;;;;;;8.25;2.20;;;23.90;75.80;;;;;;5009502;28;20747;-60
2023/09/14 12:09:41;;;;;;;5.65;2.15;;;24.00;74.40;;;;;;5022278;28;20045;-60
2023/09/14 12:12:12;;;;;;;6.05;1.92;;;23.70;73.30;;;;;;5008174;28;20041;-60
2023/09/14 12:14:40;;;;;;;5.53;1.90;;;23.60;73.60;;;;;;5009058;28;20512;-60
2023/09/14 12:17:23;;;;;;;6.50;1.92;;;23.60;74.00;;;;;;5008704;28;20042;-60
2023/09/14 12:19:50;;;;;;;5.30;1.98;;;23.80;74.60;;;;;;5004402;28;21626;-61
2023/09/14 12:22:19;;;;;;;6.93;2.38;;;24.00;74.30;;;;;;5008881;28;20041;-60
2023/09/14 12:24:46;;;;;;;5.68;2.00;;;24.30;74.60;;;;;;5008464;28;20037;-60
2023/09/14 12:27:12;;;;;;;3.25;1.90;;;24.40;73.30;;;;;;5006866;28;20370;-61
2023/09/14 12:29:40;;;;;;;5.00;2.17;;;24.60;72.40;;;;;;5006155;28;20181;-60
2023/09/14 12:32:07;;;;;;;6.18;2.00;;;24.60;71.40;;;;;;5008858;28;20080;-61
2023/09/14 12:34:33;;;;;;;3.95;1.80;;;24.40;71.00;;;;;;5003595;28;20413;-60
2023/09/14 12:37:00;;;;;;;4.70;2.13;;;24.10;71.50;;;;;;5002340;28;20079;-60
2023/09/14 12:39:26;;;;;;;8.63;2.13;;;24.00;71.30;;;;;;5001770;28;20029;-60
2023/09/14 12:41:53;;;;;;;7.55;2.00;;;24.10;71.40;;;;;;5005530;28;20121;-60
2023/09/14 12:44:23;;;;;;;8.45;2.25;;;24.10;71.50;;;;;;5006291;28;20087;-60
2023/09/14 12:46:52;;;;;;;5.90;2.20;;;24.30;72.00;;;;;;5009023;28;20045;-60